createdAt,value
2019-04-21T00:00:39.574Z,65.90
2019-04-21T00:03:37.832Z,66.70
2019-04-21T00:06:48.074Z,67.40
2019-04-21T00:12:54.778Z,69.20
2019-04-21T00:15:46.378Z,70.90
2019-04-21T00:18:50.609Z,71.80
2019-04-21T00:21:50.970Z,72.70
2019-04-21T00:25:04.288Z,73.50
2019-04-21T00:28:13.973Z,74.60
2019-04-21T00:31:12.819Z,74.70
2019-04-21T00:33:56.709Z,75.50
2019-04-21T00:37:09.449Z,76.50
2019-04-21T00:40:22.233Z,77.10
2019-04-21T00:43:21.185Z,78.70
2019-04-21T00:46:17.494Z,78.90
2019-04-21T00:49:24.331Z,82.10
2019-04-21T00:52:58.094Z,83.40
2019-04-21T00:56:01.511Z,85.10
2019-04-21T00:58:59.573Z,89.10
2019-04-21T01:02:00.282Z,89.80
2019-04-21T01:05:04.801Z,90.70
2019-04-21T01:08:04.944Z,90.00
2019-04-21T01:11:01.829Z,91.70
2019-04-21T01:14:11.974Z,91.50
2019-04-21T01:17:17.865Z,91.30
2019-04-21T01:20:10.450Z,91.70
2019-04-21T01:22:58.414Z,92.40
2019-04-21T01:26:13.742Z,92.80
2019-04-21T01:29:22.817Z,95.10
2019-04-21T01:32:29.214Z,93.30
2019-04-21T01:35:25.446Z,94.50
2019-04-21T01:38:34.260Z,96.60
2019-04-21T01:41:55.413Z,98.90
2019-04-21T01:47:37.490Z,99.90
2019-04-21T01:50:39.307Z,99.90
2019-04-21T01:54:03.281Z,99.90
2019-04-21T02:00:10.424Z,99.90
2019-04-21T02:03:45.382Z,99.90
2019-04-21T02:06:27.649Z,99.90
2019-04-21T02:09:27.363Z,99.90
2019-04-21T02:12:34.595Z,99.90
2019-04-21T02:15:36.084Z,99.90
2019-04-21T02:18:33.386Z,99.90
2019-04-21T02:21:31.963Z,99.90
2019-04-21T02:27:42.964Z,99.90
2019-04-21T02:40:04.286Z,99.90
2019-04-21T02:49:13.057Z,99.90
2019-04-21T02:58:44.077Z,99.90
2019-04-21T03:01:50.293Z,99.90
2019-04-21T03:05:15.563Z,99.90
2019-04-21T03:07:55.457Z,99.90
2019-04-21T03:10:43.343Z,99.90
2019-04-21T03:13:57.346Z,99.90
2019-04-21T03:16:55.234Z,99.90
2019-04-21T03:20:00.375Z,99.90
2019-04-21T03:23:07.802Z,99.90
2019-04-21T03:26:14.332Z,99.90
2019-04-21T03:29:11.954Z,99.90
2019-04-21T03:35:53.477Z,99.90
2019-04-21T03:38:19.045Z,99.90
2019-04-21T03:41:23.651Z,99.90
2019-04-21T03:44:28.328Z,99.90
2019-04-21T03:50:29.661Z,99.90
2019-04-21T03:53:46.461Z,99.90
2019-04-21T03:56:52.449Z,99.90
2019-04-21T03:59:40.645Z,99.90
2019-04-21T04:02:42.722Z,99.90
2019-04-21T04:05:59.510Z,99.90
2019-04-21T04:09:09.558Z,99.90
2019-04-21T04:14:53.057Z,99.90
2019-04-21T04:17:54.559Z,99.90
2019-04-21T04:21:04.473Z,99.90
2019-04-21T04:24:28.483Z,99.90
2019-04-21T04:27:07.916Z,99.90
2019-04-21T04:30:26.596Z,99.90
2019-04-21T04:33:10.561Z,99.90
2019-04-21T04:39:36.643Z,99.90
2019-04-21T04:42:31.625Z,99.90
2019-04-21T04:48:31.782Z,99.90
2019-04-21T04:51:50.000Z,99.90
2019-04-21T04:57:49.102Z,99.90
2019-04-21T05:00:43.123Z,99.90
2019-04-21T05:03:50.933Z,99.90
2019-04-21T05:06:56.334Z,99.90
2019-04-21T05:09:50.463Z,99.90
2019-04-21T05:12:46.110Z,99.90
2019-04-21T05:15:55.032Z,99.90
2019-04-21T05:19:04.245Z,99.90
2019-04-21T05:21:55.267Z,99.90
2019-04-21T05:24:52.651Z,99.90
2019-04-21T05:27:49.475Z,99.90
2019-04-21T05:31:17.977Z,99.90
2019-04-21T05:34:22.114Z,99.90
2019-04-21T05:37:25.657Z,99.90
2019-04-21T05:40:22.160Z,99.90
2019-04-21T05:43:32.496Z,99.90
2019-04-21T05:46:46.774Z,99.90
2019-04-21T05:49:38.712Z,99.90
2019-04-21T05:52:53.511Z,99.90
2019-04-21T05:56:15.986Z,99.90
2019-04-21T05:59:07.956Z,99.90
2019-04-21T06:02:18.443Z,99.90
2019-04-21T06:05:23.190Z,99.90
2019-04-21T06:08:23.510Z,99.90
2019-04-21T06:14:23.388Z,99.90
2019-04-21T06:17:33.135Z,99.90
2019-04-21T06:20:28.677Z,99.90
2019-04-21T06:23:30.290Z,99.90
2019-04-21T06:26:50.385Z,99.90
2019-04-21T06:29:26.545Z,99.90
2019-04-21T06:35:59.780Z,99.90
2019-04-21T06:41:57.194Z,99.90
2019-04-21T06:45:07.216Z,99.90
2019-04-21T06:48:06.197Z,99.90
2019-04-21T06:51:13.753Z,99.90
2019-04-21T06:54:11.424Z,99.90
2019-04-21T06:57:08.769Z,99.90
2019-04-21T07:00:11.813Z,99.90
2019-04-21T07:06:12.710Z,99.90
2019-04-21T07:09:25.527Z,99.90
2019-04-21T07:12:18.804Z,99.90
2019-04-21T07:15:24.895Z,99.90
2019-04-21T07:18:27.535Z,99.90
2019-04-21T07:21:32.549Z,99.90
2019-04-21T07:24:31.984Z,99.90
2019-04-21T07:27:35.154Z,99.90
2019-04-21T07:30:37.123Z,99.90
2019-04-21T07:36:50.910Z,99.90
2019-04-21T07:39:42.155Z,99.90
2019-04-21T07:42:42.920Z,99.90
2019-04-21T07:45:40.996Z,99.90
2019-04-21T07:48:49.802Z,99.90
2019-04-21T07:52:05.993Z,99.90
2019-04-21T07:55:12.620Z,99.90
2019-04-21T07:58:02.915Z,99.90
2019-04-21T08:01:09.511Z,99.90
2019-04-21T08:04:16.500Z,99.90
2019-04-21T08:07:15.004Z,99.90
2019-04-21T08:10:10.498Z,99.90
2019-04-21T08:13:18.817Z,98.20
2019-04-21T08:16:17.513Z,97.90
2019-04-21T08:19:20.522Z,95.80
2019-04-21T08:22:25.697Z,94.40
2019-04-21T08:25:27.234Z,92.80
2019-04-21T08:28:35.451Z,91.90
2019-04-21T08:31:46.933Z,91.60
2019-04-21T08:34:29.437Z,85.30
2019-04-21T08:37:27.488Z,87.60
2019-04-21T08:40:41.970Z,92.10
2019-04-21T08:43:43.068Z,84.00
2019-04-21T08:46:42.588Z,80.30
2019-04-21T08:49:44.277Z,79.60
2019-04-21T08:55:55.410Z,63.40
2019-04-21T08:59:18.954Z,57.20
2019-04-21T09:02:14.581Z,54.60
2019-04-21T09:05:19.169Z,51.20
2019-04-21T09:08:26.092Z,46.60
2019-04-21T09:11:22.604Z,46.10
2019-04-21T09:16:53.325Z,45.90
2019-04-21T09:20:07.848Z,45.20
2019-04-21T09:23:00.758Z,43.50
2019-04-21T09:26:05.714Z,42.90
2019-04-21T09:29:05.673Z,43.30
2019-04-21T09:31:56.291Z,41.30
2019-04-21T09:34:58.073Z,40.40
2019-04-21T09:38:11.228Z,37.30
2019-04-21T09:41:02.719Z,38.70
2019-04-21T09:44:15.162Z,37.60
2019-04-21T09:47:11.015Z,37.80
2019-04-21T09:50:13.475Z,37.60
2019-04-21T09:53:22.734Z,39.50
2019-04-21T09:56:23.778Z,39.00
2019-04-21T09:59:26.202Z,38.20
2019-04-21T10:05:51.968Z,33.80
2019-04-21T10:08:58.543Z,32.40
2019-04-21T10:11:57.040Z,35.10
2019-04-21T10:14:57.825Z,33.80
2019-04-21T10:18:03.590Z,34.40
2019-04-21T10:21:05.513Z,34.10
2019-04-21T10:24:08.273Z,33.80
2019-04-21T10:27:12.193Z,33.40
2019-04-21T10:30:13.935Z,32.80
2019-04-21T10:33:14.946Z,33.00
2019-04-21T10:36:17.124Z,31.60
2019-04-21T10:39:19.709Z,31.10
2019-04-21T10:42:21.435Z,30.60
2019-04-21T10:45:23.076Z,30.60
2019-04-21T10:48:25.181Z,30.90
2019-04-21T10:51:26.674Z,30.40
2019-04-21T10:54:42.054Z,30.00
2019-04-21T10:57:32.668Z,29.60
2019-04-21T11:00:34.362Z,29.50
2019-04-21T11:03:36.961Z,29.00
2019-04-21T11:06:39.195Z,30.80
2019-04-21T11:09:42.235Z,30.00
2019-04-21T11:12:44.611Z,30.00
2019-04-21T11:15:45.510Z,31.30
2019-04-21T11:18:46.386Z,30.90
2019-04-21T11:21:47.449Z,31.20
2019-04-21T11:24:49.100Z,30.10
2019-04-21T11:27:51.191Z,29.80
2019-04-21T11:30:53.071Z,29.90
2019-04-21T11:33:55.386Z,29.90
2019-04-21T11:36:56.407Z,29.10
2019-04-21T11:40:04.993Z,28.40
2019-04-21T11:43:01.958Z,30.00
2019-04-21T11:46:04.526Z,30.90
2019-04-21T11:49:06.354Z,30.70
2019-04-21T11:52:07.088Z,29.90
2019-04-21T11:55:08.980Z,29.80
2019-04-21T11:58:09.985Z,28.30
2019-04-21T12:03:55.616Z,29.50
2019-04-21T12:06:57.897Z,29.20
2019-04-21T12:09:59.670Z,28.90
2019-04-21T12:13:01.657Z,28.40
2019-04-21T12:16:03.282Z,29.00
2019-04-21T12:19:05.116Z,29.50
2019-04-21T12:24:51.212Z,28.70
2019-04-21T12:27:54.097Z,27.80
2019-04-21T12:30:55.964Z,26.10
2019-04-21T12:33:58.695Z,23.90
2019-04-21T12:37:01.201Z,25.00
2019-04-21T12:40:03.262Z,24.80
2019-04-21T12:43:04.429Z,27.10
2019-04-21T12:46:05.626Z,22.80
2019-04-21T12:49:07.529Z,26.20
2019-04-21T12:52:09.363Z,27.60
2019-04-21T12:55:11.407Z,27.80
2019-04-21T12:58:13.149Z,25.20
2019-04-21T13:01:14.696Z,24.30
2019-04-21T13:04:15.701Z,26.60
2019-04-21T13:07:17.404Z,24.20
2019-04-21T13:10:18.198Z,24.90
2019-04-21T13:13:19.826Z,27.10
2019-04-21T13:16:21.240Z,27.30
2019-04-21T13:22:06.028Z,26.40
2019-04-21T13:27:52.310Z,26.50
2019-04-21T13:30:54.034Z,26.10
2019-04-21T13:33:55.762Z,27.30
2019-04-21T13:36:57.360Z,26.70
2019-04-21T13:40:34.553Z,26.10
2019-04-21T13:43:21.143Z,27.60
2019-04-21T13:46:22.822Z,25.50
2019-04-21T13:49:23.539Z,26.80
2019-04-21T13:52:24.807Z,26.20
2019-04-21T13:55:25.778Z,26.70
2019-04-21T13:58:28.593Z,26.50
2019-04-21T14:01:29.906Z,26.70
2019-04-21T14:04:31.513Z,27.00
2019-04-21T14:07:32.346Z,26.70
2019-04-21T14:10:33.481Z,26.50
2019-04-21T14:13:22.639Z,26.10
2019-04-21T14:16:32.047Z,25.10
2019-04-21T14:19:35.079Z,25.10
2019-04-21T14:22:37.981Z,26.00
2019-04-21T14:25:39.582Z,25.10
2019-04-21T14:28:41.207Z,25.50
2019-04-21T14:31:42.491Z,25.50
2019-04-21T14:34:44.088Z,25.40
2019-04-21T14:37:46.700Z,24.30
2019-04-21T14:40:48.206Z,23.90
2019-04-21T14:43:50.099Z,24.90
2019-04-21T14:47:11.224Z,24.40
2019-04-21T14:50:32.455Z,23.90
2019-04-21T14:53:53.906Z,24.40
2019-04-21T14:56:55.581Z,24.40
2019-04-21T14:59:57.344Z,25.20
2019-04-21T15:02:58.785Z,25.30
2019-04-21T15:06:01.093Z,25.60
2019-04-21T15:09:03.203Z,25.50
2019-04-21T15:12:03.784Z,26.40
2019-04-21T15:15:05.692Z,26.10
2019-04-21T15:18:08.121Z,26.90
2019-04-21T15:21:09.129Z,26.70
2019-04-21T15:24:12.095Z,26.40
2019-04-21T15:27:14.445Z,26.40
2019-04-21T15:30:16.513Z,26.40
2019-04-21T15:33:18.227Z,26.70
2019-04-21T15:36:19.173Z,27.20
2019-04-21T15:39:21.451Z,26.40
2019-04-21T15:42:22.103Z,25.50
2019-04-21T15:45:24.218Z,25.10
2019-04-21T15:48:26.623Z,24.70
2019-04-21T15:51:29.641Z,25.30
2019-04-21T15:54:30.755Z,26.30
2019-04-21T15:57:21.708Z,26.40
2019-04-21T16:00:42.715Z,26.40
2019-04-21T16:03:44.756Z,26.80
2019-04-21T16:06:47.719Z,27.40
2019-04-21T16:09:50.019Z,27.70
2019-04-21T16:12:52.051Z,27.30
2019-04-21T16:15:54.567Z,28.60
2019-04-21T16:18:56.308Z,28.10
2019-04-21T16:21:58.948Z,28.60
2019-04-21T16:25:00.887Z,27.60
2019-04-21T16:28:03.458Z,27.80
2019-04-21T16:31:04.944Z,27.70
2019-04-21T16:34:05.598Z,27.80
2019-04-21T16:37:07.660Z,27.40
2019-04-21T16:40:09.521Z,27.00
2019-04-21T16:43:10.290Z,27.20
2019-04-21T16:46:11.518Z,27.60
2019-04-21T16:49:13.646Z,27.10
2019-04-21T16:52:20.385Z,26.20
2019-04-21T16:55:26.781Z,26.50
2019-04-21T16:58:32.767Z,26.30
2019-04-21T17:01:34.476Z,26.70
2019-04-21T17:04:36.295Z,26.00
2019-04-21T17:07:38.718Z,27.10
2019-04-21T17:10:55.414Z,27.50
2019-04-21T17:13:32.122Z,28.10
2019-04-21T17:17:14.191Z,28.30
2019-04-21T17:19:38.181Z,28.20
2019-04-21T17:22:43.843Z,28.30
2019-04-21T17:25:45.740Z,28.40
2019-04-21T17:28:48.783Z,28.30
2019-04-21T17:31:50.090Z,28.50
2019-04-21T17:34:52.112Z,29.10
2019-04-21T17:37:54.346Z,29.30
2019-04-21T17:40:59.601Z,29.30
2019-04-21T17:43:58.376Z,29.40
2019-04-21T17:47:05.210Z,29.70
2019-04-21T17:50:23.392Z,29.90
2019-04-21T17:53:35.743Z,30.00
2019-04-21T17:57:00.399Z,30.20
2019-04-21T18:02:58.861Z,31.00
2019-04-21T18:05:58.461Z,31.60
2019-04-21T18:09:09.186Z,33.50
2019-04-21T18:12:07.704Z,35.50
2019-04-21T18:14:59.841Z,36.90
2019-04-21T18:17:54.561Z,38.00
2019-04-21T18:21:00.853Z,39.20
2019-04-21T18:24:10.752Z,39.00
2019-04-21T18:27:08.983Z,40.10
2019-04-21T18:30:10.614Z,39.70
2019-04-21T18:33:20.846Z,40.60
2019-04-21T18:36:21.331Z,39.80
2019-04-21T18:39:38.081Z,40.20
2019-04-21T18:46:20.515Z,42.30
2019-04-21T18:49:06.499Z,43.00
2019-04-21T18:52:17.096Z,42.50
2019-04-21T18:55:20.264Z,43.10
2019-04-21T18:58:15.173Z,43.80
2019-04-21T19:01:22.425Z,44.20
2019-04-21T19:04:22.525Z,44.60
2019-04-21T19:07:37.861Z,44.60
2019-04-21T19:10:52.287Z,44.90
2019-04-21T19:14:20.839Z,45.50
2019-04-21T19:17:33.023Z,45.70
2019-04-21T19:20:12.990Z,45.80
2019-04-21T19:23:11.589Z,46.20
2019-04-21T19:26:37.706Z,46.00
2019-04-21T19:29:24.098Z,46.10
2019-04-21T19:32:33.504Z,46.70
2019-04-21T19:35:07.869Z,47.10
2019-04-21T19:38:13.704Z,47.50
2019-04-21T19:41:28.230Z,47.10
2019-04-21T19:44:34.696Z,47.30
2019-04-21T19:47:42.248Z,47.50
2019-04-21T19:50:40.495Z,48.20
2019-04-21T19:53:40.121Z,48.40
2019-04-21T19:56:27.972Z,48.70
2019-04-21T19:59:36.655Z,49.20
2019-04-21T20:02:34.291Z,48.80
2019-04-21T20:05:43.535Z,49.60
2019-04-21T20:08:59.101Z,48.90
2019-04-21T20:11:58.174Z,49.70
2019-04-21T20:15:16.702Z,50.10
2019-04-21T20:17:58.854Z,49.40
2019-04-21T20:20:50.213Z,49.90
2019-04-21T20:23:51.765Z,50.40
2019-04-21T20:27:03.007Z,50.50
2019-04-21T20:33:48.689Z,49.70
2019-04-21T20:36:41.814Z,50.80
2019-04-21T20:39:26.571Z,49.80
2019-04-21T20:42:39.046Z,49.90
2019-04-21T20:45:46.063Z,50.50
2019-04-21T20:48:42.109Z,50.00
2019-04-21T20:51:54.322Z,49.80
2019-04-21T20:54:47.920Z,49.90
2019-04-21T20:57:49.008Z,50.10
2019-04-21T21:01:08.992Z,48.80
2019-04-21T21:03:51.777Z,49.10
2019-04-21T21:07:06.761Z,49.30
2019-04-21T21:10:04.482Z,48.50
2019-04-21T21:13:14.246Z,48.40
2019-04-21T21:16:17.966Z,48.10
2019-04-21T21:19:26.758Z,47.30
2019-04-21T21:22:09.780Z,47.70
2019-04-21T21:25:18.918Z,47.40
2019-04-21T21:28:10.224Z,46.60
2019-04-21T21:31:24.881Z,46.30
2019-04-21T21:34:29.422Z,45.80
2019-04-21T21:37:33.698Z,46.00
2019-04-21T21:40:30.614Z,45.40
2019-04-21T21:43:19.931Z,45.70
2019-04-21T21:46:37.224Z,45.50
2019-04-21T21:49:35.210Z,44.60
2019-04-21T21:52:41.132Z,44.40
2019-04-21T21:55:27.778Z,44.30
2019-04-21T21:58:34.878Z,44.10
2019-04-21T22:01:37.993Z,44.40
2019-04-21T22:04:36.048Z,44.50
2019-04-21T22:07:37.118Z,44.20
2019-04-21T22:10:39.175Z,43.90
2019-04-21T22:13:49.042Z,43.80
2019-04-21T22:16:57.512Z,44.00
2019-04-21T22:22:56.145Z,43.60
2019-04-21T22:25:51.307Z,43.80
2019-04-21T22:28:53.822Z,43.60
2019-04-21T22:32:04.162Z,43.50
2019-04-21T22:35:02.014Z,43.00
2019-04-21T22:38:14.960Z,43.00
2019-04-21T22:41:16.158Z,42.50
2019-04-21T22:44:08.165Z,42.40
2019-04-21T22:47:15.418Z,42.80
2019-04-21T22:50:10.959Z,42.40
2019-04-21T22:53:13.520Z,42.70
2019-04-21T22:56:21.748Z,42.50
2019-04-21T22:59:21.008Z,42.10
2019-04-21T23:02:25.972Z,42.60
2019-04-21T23:05:28.312Z,41.50
2019-04-21T23:08:31.754Z,42.20
2019-04-21T23:11:34.706Z,42.80
2019-04-21T23:14:33.886Z,42.30
2019-04-21T23:17:53.262Z,42.40
2019-04-21T23:20:55.123Z,42.20
2019-04-21T23:23:57.204Z,42.90
2019-04-21T23:26:52.081Z,43.60
2019-04-21T23:30:09.754Z,44.30
2019-04-21T23:32:51.402Z,43.60
2019-04-21T23:35:49.307Z,43.70
2019-04-21T23:38:52.881Z,44.40
2019-04-21T23:41:53.929Z,45.00
2019-04-21T23:44:58.058Z,46.30
2019-04-21T23:48:10.843Z,47.00
2019-04-21T23:51:13.899Z,46.20
2019-04-21T23:54:02.597Z,46.20
2019-04-21T23:57:12.868Z,46.30
